Acme, North Carolina
Current Conditions -  °F | °C
As of 6:53 PM on Friday 19 Dec 2014 (Local Time) from KILM Reporting Station
Clear Clear  
Wind Chill:   Ceiling: Unl
Heat Index:   Visibility: 10mi
Dew Point:   Wind: 3mph
Humidity: 68%   Direction: 50°NE
Pressure: 30.16"   Gusts: NA
Location:  34.3494°N, 78.2681°W
Report Text: KILM 192353Z 05003KT 10SM CLR 08/02 A3016 RMK AO2 SLP213 T00780022 10156 20072 51018
Loading
Personal Weather Stations






























Interactive Weather Map New forecast layout! Learn more

10-Day Weather Forecast

Advertisements
Track Severe Weather on mobile